Time;durP1;ratioP1;P1;durP2;ratioP2;P2;SDS_P1;SDS_P2;PMS_P1;PMS_P2;Temp;Humidity;BMP_temperature;BMP_pressure;BME280_temperature;BME280_humidity;BME280_pressure;Samples;Min_cycle;Max_cycle;Signal;HPM_P1;HPM_P2
2022/09/14 00:01:58;;;;;;;2.63;0.93;;;16.30;99.90;;;;;;5119576;28;20046;-72
2022/09/14 00:04:24;;;;;;;3.67;0.80;;;16.30;99.90;;;;;;5119960;28;20051;-72
2022/09/14 00:06:50;;;;;;;4.47;0.90;;;16.30;99.90;;;;;;5119437;28;20040;-72
2022/09/14 00:09:23;;;;;;;5.28;1.27;;;16.40;99.90;;;;;;5120178;28;20440;-72
2022/09/14 00:11:50;;;;;;;4.13;1.02;;;16.40;99.90;;;;;;5120549;28;20043;-72
2022/09/14 00:14:16;;;;;;;4.15;1.08;;;16.50;99.90;;;;;;5120299;28;20119;-72
2022/09/14 00:16:43;;;;;;;1.95;0.85;;;16.50;99.90;;;;;;5120338;27;20035;-72
2022/09/14 00:19:23;;;;;;;3.40;1.15;;;16.60;99.90;;;;;;5120144;28;20375;-72
2022/09/14 00:21:51;;;;;;;4.55;0.95;;;16.60;99.90;;;;;;5118992;28;20040;-72
2022/09/14 00:24:18;;;;;;;7.00;1.33;;;16.70;99.90;;;;;;5119010;28;20428;-72
2022/09/14 00:26:43;;;;;;;4.43;0.90;;;16.60;99.90;;;;;;5102066;28;20065;-72
2022/09/14 00:29:09;;;;;;;3.35;1.02;;;16.60;99.90;;;;;;5120146;28;20080;-72
2022/09/14 00:31:37;;;;;;;2.78;0.82;;;16.60;99.90;;;;;;5119949;28;20093;-72
2022/09/14 00:34:05;;;;;;;4.90;1.30;;;16.60;99.90;;;;;;5119485;28;20039;-72
2022/09/14 00:36:36;;;;;;;3.95;1.10;;;16.60;99.90;;;;;;5119761;28;20505;-72
2022/09/14 00:39:02;;;;;;;4.13;1.20;;;16.60;99.90;;;;;;5118463;28;20079;-72
2022/09/14 00:41:31;;;;;;;4.35;1.00;;;16.50;99.90;;;;;;5118512;28;20098;-72
2022/09/14 00:44:12;;;;;;;2.80;0.98;;;16.40;99.90;;;;;;5119603;28;20111;-72
2022/09/14 00:46:40;;;;;;;2.47;1.05;;;16.40;99.90;;;;;;5101608;28;20048;-73
2022/09/14 00:49:38;;;;;;;4.15;1.52;;;16.30;99.90;;;;;;5119668;28;20042;-72
2022/09/14 00:52:09;;;;;;;;;;;16.30;99.90;;;;;;5109128;28;20048;-72
2022/09/14 00:54:39;;;;;;;3.88;1.35;;;16.30;99.90;;;;;;5118635;28;20342;-72
2022/09/14 00:57:06;;;;;;;3.88;0.93;;;16.20;99.90;;;;;;5119721;28;20118;-72
2022/09/14 00:59:35;;;;;;;5.63;1.30;;;16.20;99.90;;;;;;5119608;28;20035;-72
2022/09/14 01:02:00;;;;;;;3.40;1.30;;;16.20;99.90;;;;;;5119339;28;20048;-72
2022/09/14 01:04:26;;;;;;;4.25;1.20;;;16.10;99.90;;;;;;5118050;28;20163;-72
2022/09/14 01:07:03;;;;;;;5.80;1.65;;;16.00;99.90;;;;;;5118341;28;20039;-72
2022/09/14 01:09:45;;;;;;;4.20;1.08;;;16.00;99.90;;;;;;5119258;27;20301;-72
2022/09/14 01:12:19;;;;;;;2.97;1.17;;;16.00;99.90;;;;;;5118082;28;20039;-72
2022/09/14 01:15:12;;;;;;;5.55;1.17;;;16.00;99.90;;;;;;5118296;28;20055;-72
2022/09/14 01:17:49;;;;;;;6.45;1.40;;;16.00;99.90;;;;;;5083238;27;20059;-72
2022/09/14 01:20:36;;;;;;;4.88;1.27;;;15.90;99.90;;;;;;5100978;28;20044;-72
2022/09/14 01:23:47;;;;;;;2.28;0.98;;;15.80;99.90;;;;;;5117871;28;20051;-72
2022/09/14 01:26:19;;;;;;;3.17;1.30;;;15.90;99.90;;;;;;5117980;28;20321;-72
2022/09/14 01:29:05;;;;;;;4.78;1.58;;;15.80;99.90;;;;;;5117809;28;20331;-72
2022/09/14 01:31:58;;;;;;;2.92;1.15;;;15.80;99.90;;;;;;5118055;28;20328;-72
2022/09/14 01:34:37;;;;;;;3.97;1.40;;;15.80;99.90;;;;;;5100464;28;20042;-72
2022/09/14 01:37:17;;;;;;;3.67;1.60;;;15.80;99.90;;;;;;5117553;28;20079;-72
2022/09/14 01:39:49;;;;;;;3.33;1.63;;;15.70;99.90;;;;;;5118741;28;20093;-72
2022/09/14 01:42:17;;;;;;;3.22;1.67;;;15.70;99.90;;;;;;5117510;28;20055;-72
2022/09/14 01:44:48;;;;;;;4.72;1.30;;;15.70;99.90;;;;;;5118401;28;20065;-72
2022/09/14 01:47:27;;;;;;;5.82;1.70;;;15.70;99.90;;;;;;5117563;28;20075;-72
2022/09/14 01:50:00;;;;;;;2.83;1.70;;;15.60;99.90;;;;;;5117701;28;20035;-72
2022/09/14 01:52:58;;;;;;;4.40;1.98;;;15.60;99.90;;;;;;5117378;28;20035;-72
2022/09/14 01:55:33;;;;;;;5.03;2.28;;;15.60;99.90;;;;;;5098482;28;20078;-71
2022/09/14 01:58:25;;;;;;;5.43;1.95;;;15.70;99.90;;;;;;5118089;28;20039;-72
2022/09/14 02:00:53;;;;;;;6.80;2.47;;;15.80;99.90;;;;;;5118046;28;20050;-72
2022/09/14 02:03:24;;;;;;;5.78;2.00;;;15.80;99.90;;;;;;5118412;28;20036;-72
2022/09/14 02:05:56;;;;;;;7.32;3.08;;;15.80;99.90;;;;;;5099652;28;20039;-72
2022/09/14 02:08:25;;;;;;;4.32;2.53;;;15.90;99.90;;;;;;5099952;28;20036;-72
2022/09/14 02:10:51;;;;;;;4.07;2.33;;;15.90;99.90;;;;;;5117174;28;20043;-72
2022/09/14 02:13:17;;;;;;;6.55;2.50;;;16.00;99.90;;;;;;5117034;28;20478;-72
2022/09/14 02:15:42;;;;;;;4.00;2.38;;;16.10;99.90;;;;;;5117935;28;20063;-72
2022/09/14 02:18:08;;;;;;;6.57;2.75;;;16.20;99.90;;;;;;5117754;28;20043;-72
2022/09/14 02:20:43;;;;;;;5.38;2.10;;;16.20;99.90;;;;;;5117820;28;20035;-72
2022/09/14 02:23:09;;;;;;;5.43;2.17;;;16.30;99.90;;;;;;5117821;28;20028;-72
2022/09/14 02:25:35;;;;;;;4.60;2.22;;;16.30;99.90;;;;;;5099709;28;20054;-72
2022/09/14 02:28:03;;;;;;;8.20;2.22;;;16.30;99.90;;;;;;5116591;28;20126;-72
2022/09/14 02:30:36;;;;;;;13.60;4.10;;;16.40;99.90;;;;;;5117740;28;20039;-72
2022/09/14 02:33:23;;;;;;;6.05;3.15;;;16.30;99.90;;;;;;5117530;28;20031;-72
2022/09/14 02:35:53;;;;;;;10.45;3.50;;;16.40;99.90;;;;;;5117309;28;20054;-72
2022/09/14 02:38:32;;;;;;;7.85;2.97;;;16.30;99.90;;;;;;5117469;28;20096;-72
2022/09/14 02:41:05;;;;;;;5.80;2.70;;;16.20;99.90;;;;;;5117208;28;20452;-72
2022/09/14 02:43:43;;;;;;;8.20;2.75;;;16.30;99.90;;;;;;5117644;28;20063;-72
2022/09/14 02:46:16;;;;;;;6.68;2.70;;;16.30;99.90;;;;;;5117089;28;20416;-72
2022/09/14 02:49:05;;;;;;;6.25;2.50;;;16.30;99.90;;;;;;5116230;28;20040;-72
2022/09/14 02:51:43;;;;;;;7.50;3.13;;;16.30;99.90;;;;;;5116336;28;20118;-72
2022/09/14 02:54:11;;;;;;;5.90;2.95;;;16.40;99.90;;;;;;5099144;28;20078;-71
2022/09/14 02:56:37;;;;;;;4.97;2.40;;;16.30;99.90;;;;;;5116455;28;20371;-71
2022/09/14 02:59:04;;;;;;;5.97;2.63;;;16.40;99.90;;;;;;5116396;28;20047;-71
2022/09/14 03:01:30;;;;;;;4.97;2.97;;;16.30;99.90;;;;;;5117195;28;20035;-72
2022/09/14 03:03:55;;;;;;;4.20;2.50;;;16.30;99.90;;;;;;5116275;28;20091;-71
2022/09/14 03:06:21;;;;;;;11.60;2.75;;;16.30;99.90;;;;;;5115506;28;20131;-72
2022/09/14 03:08:47;;;;;;;6.68;2.60;;;16.20;99.90;;;;;;5116189;28;20122;-73
2022/09/14 03:11:13;;;;;;;4.43;2.58;;;16.30;99.90;;;;;;5116827;28;20046;-72
2022/09/14 03:13:38;;;;;;;7.90;2.70;;;16.30;99.90;;;;;;5109488;27;20039;-72
2022/09/14 03:16:09;;;;;;;4.95;2.63;;;16.40;99.90;;;;;;5115762;28;20074;-72
2022/09/14 03:18:36;;;;;;;8.35;2.90;;;16.30;99.90;;;;;;5116178;28;20116;-72
2022/09/14 03:21:14;;;;;;;7.65;2.72;;;16.40;99.90;;;;;;5150154;27;20057;-71
2022/09/14 03:23:46;;;;;;;3.10;1.85;;;16.40;99.90;;;;;;5115686;28;20429;-72
2022/09/14 03:26:17;;;;;;;5.25;2.40;;;16.40;99.90;;;;;;5098934;28;20040;-72
2022/09/14 03:28:43;;;;;;;6.78;2.53;;;16.40;99.90;;;;;;5116902;28;20031;-72
2022/09/14 03:31:11;;;;;;;6.70;2.20;;;16.40;99.90;;;;;;5116842;28;20071;-71
2022/09/14 03:33:37;;;;;;;5.50;2.50;;;16.40;99.90;;;;;;5116916;28;20110;-71
2022/09/14 03:36:16;;;;;;;5.70;2.55;;;16.40;99.90;;;;;;5116254;28;20074;-73
2022/09/14 03:38:50;;;;;;;7.07;2.80;;;16.40;99.90;;;;;;5116781;28;20314;-72
2022/09/14 03:41:15;;;;;;;6.05;2.40;;;16.50;99.90;;;;;;5115410;28;20067;-72
2022/09/14 03:43:42;;;;;;;5.38;2.25;;;16.40;99.90;;;;;;5116869;28;20036;-71
2022/09/14 03:46:20;;;;;;;5.38;2.40;;;16.40;99.90;;;;;;5116598;28;20043;-71
2022/09/14 03:48:46;;;;;;;5.93;2.58;;;16.50;99.90;;;;;;5115949;28;20036;-72
2022/09/14 03:51:13;;;;;;;5.72;2.40;;;16.50;99.90;;;;;;5116656;28;20036;-71
2022/09/14 03:53:39;;;;;;;6.53;2.38;;;16.60;99.90;;;;;;5116709;28;20063;-71
2022/09/14 03:56:11;;;;;;;4.63;2.58;;;16.60;99.90;;;;;;5115785;28;20036;-71
2022/09/14 03:58:37;;;;;;;8.38;2.92;;;16.60;99.90;;;;;;5116728;28;20046;-72
2022/09/14 04:01:05;;;;;;;7.47;2.58;;;16.60;99.90;;;;;;5116460;28;20039;-72
2022/09/14 04:03:31;;;;;;;5.47;2.72;;;16.50;99.90;;;;;;5115599;28;20044;-72
2022/09/14 04:05:58;;;;;;;4.90;2.53;;;16.50;99.90;;;;;;5116339;28;20392;-72
2022/09/14 04:08:24;;;;;;;7.13;2.72;;;16.50;99.90;;;;;;5116540;28;20332;-72
2022/09/14 04:10:49;;;;;;;5.25;2.50;;;16.50;99.90;;;;;;5115387;28;20043;-72
2022/09/14 04:13:15;;;;;;;4.28;2.33;;;16.50;99.90;;;;;;5117236;28;20039;-72
2022/09/14 04:15:41;;;;;;;5.88;2.80;;;16.60;99.90;;;;;;5153452;27;20047;-73
2022/09/14 04:18:06;;;;;;;3.88;2.75;;;16.60;99.90;;;;;;5119578;28;20071;-72
2022/09/14 04:20:32;;;;;;;6.22;2.53;;;16.60;99.90;;;;;;5120340;28;20416;-72
2022/09/14 04:22:58;;;;;;;3.42;2.80;;;16.70;99.90;;;;;;5120224;28;20364;-72
2022/09/14 04:25:23;;;;;;;8.05;2.75;;;16.70;99.90;;;;;;5102091;28;20408;-71
2022/09/14 04:27:49;;;;;;;6.50;2.90;;;16.70;99.90;;;;;;5120315;28;20043;-71
2022/09/14 04:30:15;;;;;;;7.47;3.05;;;16.60;99.90;;;;;;5119855;28;20123;-72
2022/09/14 04:32:41;;;;;;;7.07;2.85;;;16.60;99.90;;;;;;5153187;27;20118;-72
2022/09/14 04:35:07;;;;;;;5.75;2.78;;;16.60;99.90;;;;;;5118482;28;20043;-72
2022/09/14 04:37:32;;;;;;;6.55;3.15;;;16.60;99.90;;;;;;5118859;28;20043;-72
2022/09/14 04:39:58;;;;;;;9.85;3.03;;;16.70;99.90;;;;;;5119922;28;20066;-72
2022/09/14 04:42:24;;;;;;;6.57;2.78;;;16.70;99.90;;;;;;5118546;28;20054;-72
2022/09/14 04:44:50;;;;;;;7.18;3.17;;;16.70;99.90;;;;;;5119697;28;20043;-72
2022/09/14 04:47:16;;;;;;;5.88;3.05;;;16.70;99.90;;;;;;5119543;28;20069;-71
2022/09/14 04:49:42;;;;;;;6.57;3.03;;;16.80;99.90;;;;;;5119794;28;20100;-72
2022/09/14 04:52:07;;;;;;;4.57;2.75;;;16.80;99.90;;;;;;5118655;28;20420;-71
2022/09/14 04:54:33;;;;;;;4.43;3.08;;;16.70;99.90;;;;;;5153259;27;20395;-72
2022/09/14 04:56:59;;;;;;;5.28;2.88;;;16.80;99.90;;;;;;5119762;28;20440;-71
2022/09/14 04:59:24;;;;;;;7.30;3.08;;;16.80;99.90;;;;;;5119477;28;20040;-72
2022/09/14 05:01:50;;;;;;;6.10;2.42;;;16.80;99.90;;;;;;5119419;28;20096;-72
2022/09/14 05:04:16;;;;;;;6.60;2.83;;;16.80;99.90;;;;;;5118866;28;20036;-72
2022/09/14 05:06:43;;;;;;;6.43;2.47;;;16.80;99.90;;;;;;5119382;28;20050;-72
2022/09/14 05:09:17;;;;;;;4.40;3.00;;;16.80;99.90;;;;;;5119263;28;20039;-71
2022/09/14 05:11:43;;;;;;;5.93;2.42;;;16.80;99.90;;;;;;5118486;28;20092;-72
2022/09/14 05:14:11;;;;;;;7.07;3.08;;;16.80;99.90;;;;;;5117918;28;20036;-72
2022/09/14 05:16:38;;;;;;;4.47;2.47;;;16.80;99.90;;;;;;5119318;28;20047;-72
2022/09/14 05:19:10;;;;;;;5.97;2.60;;;16.70;99.90;;;;;;5117978;28;20040;-72
2022/09/14 05:21:37;;;;;;;4.15;2.83;;;16.80;99.90;;;;;;5118995;28;20118;-72
2022/09/14 05:24:06;;;;;;;6.38;2.90;;;16.80;99.90;;;;;;5117885;28;20050;-72
2022/09/14 05:26:32;;;;;;;8.40;3.10;;;16.80;99.90;;;;;;5117999;28;20085;-72
2022/09/14 05:29:00;;;;;;;7.03;2.67;;;16.80;99.90;;;;;;5100977;28;20051;-72
2022/09/14 05:31:27;;;;;;;4.90;3.08;;;16.80;99.90;;;;;;5118900;28;20127;-71
2022/09/14 05:33:53;;;;;;;5.72;3.00;;;16.90;99.90;;;;;;5117651;28;20035;-72
2022/09/14 05:36:19;;;;;;;6.63;2.80;;;16.90;99.90;;;;;;5152043;27;20108;-72
2022/09/14 05:38:45;;;;;;;8.70;3.40;;;16.90;99.90;;;;;;5118759;28;20051;-72
2022/09/14 05:41:12;;;;;;;4.38;2.65;;;16.90;99.90;;;;;;5100377;28;20046;-72
2022/09/14 05:43:38;;;;;;;5.72;2.88;;;16.90;99.90;;;;;;5118712;28;20054;-72
2022/09/14 05:46:08;;;;;;;7.53;2.95;;;16.90;99.90;;;;;;5118425;28;20043;-72
2022/09/14 05:48:37;;;;;;;5.68;2.65;;;16.90;99.90;;;;;;5117574;28;20097;-72
2022/09/14 05:51:06;;;;;;;3.95;2.63;;;16.90;99.90;;;;;;5118430;28;20472;-72
2022/09/14 05:53:32;;;;;;;4.68;2.70;;;17.00;99.90;;;;;;5100355;28;20039;-71
2022/09/14 05:56:04;;;;;;;7.70;3.20;;;17.00;99.90;;;;;;5117197;28;20040;-72
2022/09/14 05:58:30;;;;;;;7.10;3.00;;;17.00;99.90;;;;;;5118573;28;20036;-72
2022/09/14 06:00:56;;;;;;;6.28;2.92;;;17.00;99.90;;;;;;5117157;28;20061;-72
2022/09/14 06:03:21;;;;;;;6.63;2.85;;;17.00;99.90;;;;;;5151828;27;20035;-72
2022/09/14 06:05:47;;;;;;;9.27;2.60;;;17.00;99.90;;;;;;5117942;28;20441;-72
2022/09/14 06:08:13;;;;;;;8.07;3.05;;;17.00;99.90;;;;;;5118270;28;20426;-73
2022/09/14 06:10:39;;;;;;;5.15;2.55;;;17.10;99.90;;;;;;5117904;27;20332;-72
2022/09/14 06:13:05;;;;;;;4.25;2.28;;;17.10;99.90;;;;;;5116805;28;20497;-72
2022/09/14 06:15:32;;;;;;;5.50;2.58;;;17.20;99.90;;;;;;5118092;28;20044;-72
2022/09/14 06:17:58;;;;;;;6.15;2.58;;;17.20;99.90;;;;;;5117875;28;20071;-72
2022/09/14 06:20:24;;;;;;;5.40;2.50;;;17.30;99.90;;;;;;5117808;28;20454;-72
2022/09/14 06:22:49;;;;;;;6.20;2.25;;;17.40;99.90;;;;;;5117720;28;20035;-72
2022/09/14 06:25:15;;;;;;;4.68;2.92;;;17.40;99.90;;;;;;5117676;28;20145;-72
2022/09/14 06:27:41;;;;;;;9.18;2.72;;;17.40;99.90;;;;;;5116613;28;20074;-72
2022/09/14 06:30:07;;;;;;;7.57;2.65;;;17.50;99.90;;;;;;5150915;27;20114;-72
2022/09/14 06:32:33;;;;;;;13.35;3.00;;;17.60;99.90;;;;;;5116759;28;20089;-72
2022/09/14 06:34:58;;;;;;;11.13;3.58;;;17.60;99.90;;;;;;5117350;28;20351;-72
2022/09/14 06:37:24;;;;;;;6.38;2.83;;;17.60;99.90;;;;;;5117309;28;20447;-73
2022/09/14 06:39:50;;;;;;;6.72;2.70;;;17.60;99.90;;;;;;5117358;28;20462;-72
2022/09/14 06:42:15;;;;;;;4.70;2.70;;;17.60;99.90;;;;;;5116443;28;20344;-72
2022/09/14 06:44:41;;;;;;;8.48;2.70;;;17.70;99.90;;;;;;5116560;28;20467;-72
2022/09/14 06:47:07;;;;;;;5.15;2.67;;;17.80;99.90;;;;;;5117633;28;20043;-72
2022/09/14 06:49:32;;;;;;;8.75;3.08;;;17.80;99.90;;;;;;5116398;28;20118;-72
2022/09/14 06:51:59;;;;;;;5.70;2.42;;;17.90;99.90;;;;;;5150714;27;20075;-71
2022/09/14 06:54:26;;;;;;;8.73;2.92;;;17.90;99.90;;;;;;5116333;28;20040;-72
2022/09/14 06:56:51;;;;;;;5.43;2.53;;;17.90;99.90;;;;;;5116525;28;20374;-72
2022/09/14 06:59:18;;;;;;;4.57;2.55;;;17.60;99.90;;;;;;5117268;28;20039;-72
2022/09/14 07:01:44;;;;;;;9.35;2.67;;;17.50;99.90;;;;;;5116060;28;20119;-72
2022/09/14 07:04:11;;;;;;;5.43;2.42;;;17.60;99.90;;;;;;5117248;28;20063;-72
2022/09/14 07:06:45;;;;;;;6.85;2.20;;;17.70;99.90;;;;;;5116739;28;20036;-73
2022/09/14 07:09:11;;;;;;;7.80;3.00;;;17.80;99.90;;;;;;5116073;28;20032;-72
2022/09/14 07:11:37;;;;;;;8.63;2.63;;;17.90;99.90;;;;;;5117120;28;20114;-72
2022/09/14 07:14:03;;;;;;;11.55;2.90;;;17.90;99.90;;;;;;5116056;28;20035;-72
2022/09/14 07:16:31;;;;;;;9.80;3.10;;;17.90;99.90;;;;;;5116130;28;20044;-72
2022/09/14 07:18:58;;;;;;;10.35;3.03;;;17.90;99.90;;;;;;5115790;28;20052;-72
2022/09/14 07:21:25;;;;;;;6.88;2.80;;;17.80;99.90;;;;;;5099040;28;20420;-72
2022/09/14 07:23:50;;;;;;;8.18;3.10;;;17.70;99.90;;;;;;5116104;28;20110;-72
2022/09/14 07:26:21;;;;;;;6.93;2.40;;;17.60;99.90;;;;;;5117109;28;20500;-71
2022/09/14 07:28:54;;;;;;;6.22;2.30;;;17.70;99.90;;;;;;5116923;28;20070;-71
2022/09/14 07:31:28;;;;;;;6.57;2.60;;;17.90;99.90;;;;;;5117187;28;20044;-71
2022/09/14 07:33:56;;;;;;;6.28;2.00;;;18.10;99.90;;;;;;5116717;28;20071;-72
2022/09/14 07:36:23;;;;;;;4.55;1.80;;;18.20;99.90;;;;;;5116534;28;20047;-73
2022/09/14 07:38:49;;;;;;;5.13;1.85;;;18.10;99.90;;;;;;5115818;28;20451;-72
2022/09/14 07:41:15;;;;;;;6.57;2.00;;;18.30;99.90;;;;;;5115629;28;20059;-70
2022/09/14 07:43:41;;;;;;;9.77;2.53;;;18.50;99.90;;;;;;5116773;28;20062;-71
2022/09/14 07:46:07;;;;;;;6.55;2.13;;;18.40;99.90;;;;;;5116639;28;20050;-72
2022/09/14 07:48:34;;;;;;;6.30;2.00;;;18.30;99.90;;;;;;5118375;28;20107;-71
2022/09/14 07:51:01;;;;;;;4.00;1.98;;;18.30;99.90;;;;;;5102978;28;20068;-74
2022/09/14 07:53:26;;;;;;;8.07;2.22;;;18.30;99.90;;;;;;5122953;28;20051;-71
2022/09/14 07:55:52;;;;;;;4.00;2.20;;;18.50;99.90;;;;;;5121420;28;20039;-73
2022/09/14 07:58:18;;;;;;;11.55;2.00;;;18.60;99.90;;;;;;5120513;28;20163;-74
2022/09/14 08:00:44;;;;;;;10.45;2.15;;;18.40;99.90;;;;;;5120898;28;20079;-73
2022/09/14 08:03:10;;;;;;;4.70;2.10;;;18.50;99.90;;;;;;5120436;28;20114;-74
2022/09/14 08:05:35;;;;;;;5.85;2.15;;;18.40;99.90;;;;;;5153420;27;20130;-73
2022/09/14 08:08:01;;;;;;;7.40;2.15;;;18.60;99.90;;;;;;5120656;28;20067;-74
2022/09/14 08:10:27;;;;;;;2.75;1.70;;;18.80;99.90;;;;;;5120776;28;20463;-74
2022/09/14 08:12:53;;;;;;;5.70;1.92;;;19.00;99.90;;;;;;5120388;28;20478;-74
2022/09/14 08:15:21;;;;;;;8.63;1.95;;;19.00;99.90;;;;;;5120407;28;20035;-73
2022/09/14 08:17:48;;;;;;;4.63;1.45;;;19.10;99.90;;;;;;5120322;28;20111;-74
2022/09/14 08:20:15;;;;;;;6.95;1.40;;;19.20;99.90;;;;;;5120278;28;20040;-74
2022/09/14 08:22:43;;;;;;;9.43;1.38;;;19.30;99.90;;;;;;5120331;28;20439;-74
2022/09/14 08:25:10;;;;;;;7.75;1.67;;;19.40;99.90;;;;;;5120167;28;20038;-74
2022/09/14 08:27:36;;;;;;;7.90;1.27;;;19.50;99.90;;;;;;5120309;28;20074;-74
2022/09/14 08:30:02;;;;;;;8.75;1.58;;;19.50;99.90;;;;;;5120080;28;20085;-73
2022/09/14 08:32:28;;;;;;;7.53;1.48;;;19.60;99.90;;;;;;5120069;28;20052;-74
2022/09/14 08:34:54;;;;;;;6.72;1.33;;;19.50;99.90;;;;;;5119495;28;20069;-73
2022/09/14 08:37:20;;;;;;;7.88;1.20;;;19.60;99.90;;;;;;5119985;28;20040;-76
2022/09/14 08:39:46;;;;;;;6.88;1.70;;;19.70;99.90;;;;;;5119245;28;20042;-76
2022/09/14 08:42:18;;;;;;;8.50;1.13;;;19.80;99.90;;;;;;5119709;28;20051;-75
2022/09/14 08:44:49;;;;;;;10.23;1.40;;;19.80;99.90;;;;;;5119742;28;20100;-77
2022/09/14 08:47:20;;;;;;;8.57;1.38;;;19.80;99.90;;;;;;5119760;28;20085;-76
2022/09/14 08:50:17;;;;;;;7.55;1.33;;;19.90;99.90;;;;;;5119940;28;20044;-76
2022/09/14 08:52:53;;;;;;;8.15;1.10;;;19.70;99.90;;;;;;5119794;28;20036;-74
2022/09/14 08:55:27;;;;;;;;;;;19.80;99.90;;;;;;5119975;28;20081;-81
2022/09/14 08:58:12;;;;;;;5.47;1.10;;;19.60;99.90;;;;;;5153002;27;19919;-78
2022/09/14 09:01:18;;;;;;;6.32;1.02;;;19.40;99.90;;;;;;5101277;28;20044;-78
2022/09/14 09:03:55;;;;;;;11.27;1.20;;;18.90;99.90;;;;;;5057262;28;20086;-79
2022/09/14 09:06:27;;;;;;;5.35;1.23;;;18.70;99.90;;;;;;5100860;28;20110;-80
2022/09/14 09:09:18;;;;;;;9.18;1.27;;;18.80;99.90;;;;;;5101185;28;20417;-79
2022/09/14 09:11:47;;;;;;;8.15;1.20;;;19.00;99.90;;;;;;5118310;28;20032;-79
2022/09/14 09:14:42;;;;;;;8.95;1.05;;;19.00;99.90;;;;;;5101452;28;20051;-79
2022/09/14 09:17:34;;;;;;;7.90;1.00;;;19.20;99.90;;;;;;5110882;28;20056;-79
2022/09/14 09:20:33;;;;;;;7.32;1.10;;;19.30;99.90;;;;;;5118177;28;20054;-79
2022/09/14 09:23:11;;;;;;;3.97;0.80;;;19.40;99.90;;;;;;5118733;28;20051;-82
2022/09/14 09:25:59;;;;;;;4.05;0.80;;;19.20;99.90;;;;;;5152507;27;20044;-82
2022/09/14 09:28:27;;;;;;;7.75;1.13;;;19.20;99.90;;;;;;5101155;28;20035;-82
2022/09/14 09:31:03;;;;;;;10.93;0.95;;;18.90;99.90;;;;;;5117877;28;20107;-80
2022/09/14 09:33:30;;;;;;;8.45;1.17;;;19.10;99.90;;;;;;5117902;28;20145;-83
2022/09/14 09:35:56;;;;;;;8.02;1.15;;;19.10;99.90;;;;;;5117783;28;20328;-84
2022/09/14 09:38:25;;;;;;;4.32;0.73;;;19.20;99.90;;;;;;5100796;28;20051;-84
2022/09/14 09:44:11;;;;;;;8.43;0.88;;;19.50;99.60;;;;;;5118353;28;20395;-84
2022/09/14 09:46:43;;;;;;;7.55;1.20;;;19.90;99.40;;;;;;5101265;28;20039;-83
2022/09/14 09:49:31;;;;;;;10.25;1.08;;;20.00;99.20;;;;;;5118001;28;20035;-83
2022/09/14 09:52:15;;;;;;;5.40;0.80;;;20.10;99.50;;;;;;5117428;28;20031;-76
2022/09/14 09:54:47;;;;;;;7.88;0.80;;;20.20;99.10;;;;;;5118610;28;20107;-74
2022/09/14 09:57:34;;;;;;;9.50;0.75;;;20.50;99.50;;;;;;5118609;28;20082;-74
2022/09/14 10:00:21;;;;;;;5.53;0.57;;;20.80;98.90;;;;;;5118511;28;20078;-74
2022/09/14 10:02:47;;;;;;;4.18;0.52;;;20.90;99.00;;;;;;5118420;28;20071;-74
2022/09/14 10:05:13;;;;;;;6.68;0.98;;;20.80;98.90;;;;;;5117885;28;20046;-74
2022/09/14 10:07:48;;;;;;;6.70;0.68;;;20.80;98.90;;;;;;5118269;28;20044;-77
2022/09/14 10:10:17;;;;;;;5.50;0.60;;;21.10;98.70;;;;;;5117955;28;20031;-86
2022/09/14 10:12:54;;;;;;;5.28;0.68;;;21.30;98.70;;;;;;5090159;28;20040;-78
2022/09/14 10:15:33;;;;;;;6.40;0.68;;;21.10;99.00;;;;;;5102569;28;20294;-79
2022/09/14 10:18:14;;;;;;;6.90;0.98;;;21.00;99.20;;;;;;5113420;28;20302;-79
2022/09/14 10:20:52;;;;;;;6.55;0.90;;;20.90;99.30;;;;;;5118478;27;20035;-79
2022/09/14 10:23:18;;;;;;;4.15;0.73;;;20.50;98.90;;;;;;5139360;27;20035;-80
2022/09/14 10:25:49;;;;;;;5.97;0.60;;;20.20;98.40;;;;;;5111268;28;20067;-78
2022/09/14 10:28:30;;;;;;;5.85;0.85;;;20.00;98.90;;;;;;5129623;27;20433;-78
2022/09/14 10:31:11;;;;;;;5.35;0.80;;;20.10;98.50;;;;;;5097233;28;20443;-79
2022/09/14 10:33:37;;;;;;;10.45;0.80;;;20.30;99.20;;;;;;5096238;28;20071;-79
2022/09/14 10:36:20;;;;;;;6.00;0.60;;;20.30;98.80;;;;;;5112681;28;20054;-79
2022/09/14 10:39:13;;;;;;;5.95;0.65;;;20.30;98.90;;;;;;5130538;27;20044;-79
2022/09/14 10:41:54;;;;;;;7.03;1.00;;;20.20;98.90;;;;;;5072781;28;20139;-77
2022/09/14 10:44:38;;;;;;;8.68;0.80;;;20.30;99.00;;;;;;5097494;28;20040;-75
2022/09/14 10:47:22;;;;;;;9.82;1.77;;;20.40;99.20;;;;;;5130738;27;20127;-76
2022/09/14 10:50:12;;;;;;;3.03;0.80;;;20.50;99.20;;;;;;5130264;27;20072;-73
2022/09/14 10:53:12;;;;;;;6.88;1.08;;;20.80;99.20;;;;;;5097253;28;20037;-73
2022/09/14 10:55:43;;;;;;;11.25;1.05;;;21.30;99.30;;;;;;5097240;28;20356;-73
2022/09/14 10:58:46;;;;;;;7.18;0.77;;;21.60;99.00;;;;;;5096882;28;20036;-73
2022/09/14 11:01:49;;;;;;;5.03;1.25;;;21.60;98.90;;;;;;5096952;28;20089;-73
2022/09/14 11:04:15;;;;;;;6.25;0.85;;;21.70;98.60;;;;;;5097101;28;20040;-79
2022/09/14 11:06:44;;;;;;;7.72;0.80;;;21.40;98.40;;;;;;5129251;27;20097;-82
2022/09/14 11:09:20;;;;;;;8.07;0.68;;;21.10;98.40;;;;;;5115024;28;20051;-83
2022/09/14 11:12:01;;;;;;;6.65;0.82;;;20.70;98.60;;;;;;5130040;27;20492;-85
2022/09/14 11:14:44;;;;;;;13.73;1.20;;;20.50;98.80;;;;;;5129774;27;20036;-81
2022/09/14 11:17:18;;;;;;;7.40;1.00;;;20.80;99.00;;;;;;5129644;27;20048;-82
2022/09/14 11:20:14;;;;;;;9.20;1.08;;;20.80;98.60;;;;;;5129609;27;20051;-73
2022/09/14 11:23:19;;;;;;;7.35;1.08;;;21.20;98.30;;;;;;5094667;28;20425;-77
2022/09/14 11:25:51;;;;;;;9.18;1.17;;;21.60;98.00;;;;;;5095547;28;20042;-77
2022/09/14 11:28:40;;;;;;;4.38;0.70;;;21.80;98.10;;;;;;5096836;28;20082;-76
2022/09/14 11:31:11;;;;;;;9.25;0.70;;;22.00;98.00;;;;;;5097979;28;20042;-74
2022/09/14 11:33:51;;;;;;;4.72;0.90;;;22.20;97.50;;;;;;5105127;28;20032;-73
2022/09/14 11:36:22;;;;;;;5.40;0.60;;;22.60;97.70;;;;;;5111482;28;20054;-73
2022/09/14 11:39:11;;;;;;;4.75;0.88;;;22.90;97.60;;;;;;5112578;28;21500;-74
2022/09/14 11:41:40;;;;;;;6.38;0.57;;;23.30;97.50;;;;;;5101145;28;20131;-79
2022/09/14 11:44:17;;;;;;;5.78;1.00;;;23.10;97.50;;;;;;5128680;28;20051;-79
2022/09/14 11:47:07;;;;;;;4.82;0.90;;;23.20;97.30;;;;;;5129801;28;20048;-82
2022/09/14 11:49:40;;;;;;;5.07;0.50;;;22.60;97.20;;;;;;5095526;28;20336;-78
2022/09/14 11:52:19;;;;;;;10.80;0.85;;;22.30;97.30;;;;;;5095547;28;20178;-74
2022/09/14 11:54:47;;;;;;;7.13;1.08;;;22.30;97.10;;;;;;5096145;28;20047;-85
2022/09/14 11:57:23;;;;;;;6.07;0.95;;;22.50;97.10;;;;;;5112488;28;20040;-84
2022/09/14 11:59:51;;;;;;;7.45;0.95;;;22.40;97.00;;;;;;5095364;28;20043;-74
2022/09/14 12:02:22;;;;;;;6.63;0.82;;;22.50;97.10;;;;;;5096451;28;20044;-74
2022/09/14 12:05:06;;;;;;;7.97;0.77;;;23.00;96.90;;;;;;5129031;28;20067;-74
2022/09/14 12:07:41;;;;;;;5.22;0.82;;;22.90;97.20;;;;;;5096789;28;20044;-77
2022/09/14 12:10:28;;;;;;;6.55;0.65;;;22.90;97.00;;;;;;5096679;28;20455;-74
2022/09/14 12:12:55;;;;;;;3.75;0.80;;;23.20;97.00;;;;;;5096391;28;20119;-72
2022/09/14 12:15:24;;;;;;;6.72;0.82;;;23.20;97.00;;;;;;5095203;28;20044;-72
2022/09/14 12:17:51;;;;;;;5.78;0.60;;;23.10;96.70;;;;;;5096309;28;20047;-74
2022/09/14 12:20:36;;;;;;;5.10;0.85;;;23.40;96.20;;;;;;5096259;28;20040;-75
2022/09/14 12:23:38;;;;;;;6.93;0.93;;;23.70;96.00;;;;;;5096276;28;20040;-76
2022/09/14 12:26:10;;;;;;;10.80;1.08;;;23.40;96.30;;;;;;5095758;28;20058;-76
2022/09/14 12:28:39;;;;;;;6.95;0.93;;;23.80;96.30;;;;;;5129245;28;20119;-76
2022/09/14 12:31:04;;;;;;;4.20;0.73;;;24.30;96.10;;;;;;5096279;28;20036;-76
2022/09/14 12:33:30;;;;;;;5.47;0.65;;;24.60;96.20;;;;;;5095989;28;20039;-76
2022/09/14 12:36:04;;;;;;;4.18;0.68;;;24.10;96.00;;;;;;5099088;28;20040;-76
2022/09/14 12:38:29;;;;;;;6.50;0.70;;;24.10;96.40;;;;;;5099642;28;20047;-76
2022/09/14 12:40:56;;;;;;;5.38;0.80;;;24.50;96.00;;;;;;5099748;28;20329;-75
2022/09/14 12:43:34;;;;;;;7.28;1.88;;;24.90;96.50;;;;;;5099294;28;20389;-76
2022/09/14 12:46:08;;;;;;;4.15;0.55;;;24.80;96.40;;;;;;5099408;28;20044;-76
2022/09/14 12:48:46;;;;;;;4.18;0.70;;;24.80;96.30;;;;;;5115569;28;20381;-76
2022/09/14 12:53:59;;;;;;;6.75;0.88;;;24.20;96.50;;;;;;5099546;28;20048;-75
2022/09/14 12:56:49;;;;;;;5.95;0.80;;;24.00;96.50;;;;;;5099359;28;20113;-76
2022/09/14 12:59:39;;;;;;;4.95;0.60;;;24.00;96.60;;;;;;5091684;28;20063;-76
2022/09/14 13:02:22;;;;;;;6.15;0.82;;;24.00;96.50;;;;;;5132403;27;20047;-76
2022/09/14 13:04:52;;;;;;;5.35;1.13;;;23.90;96.40;;;;;;5098965;28;20047;-76
2022/09/14 13:07:20;;;;;;;5.57;0.70;;;23.90;96.60;;;;;;5132206;27;20094;-77
2022/09/14 13:09:52;;;;;;;8.05;0.60;;;23.70;96.20;;;;;;5098893;28;20336;-78
2022/09/14 13:12:40;;;;;;;5.70;0.88;;;22.80;96.30;;;;;;5099178;28;20101;-77
2022/09/14 13:15:25;;;;;;;4.32;0.70;;;22.00;96.60;;;;;;5098848;28;20105;-78
2022/09/14 13:17:59;;;;;;;6.68;0.82;;;21.80;97.00;;;;;;5098867;28;20040;-80
2022/09/14 13:20:25;;;;;;;6.40;0.70;;;21.60;97.00;;;;;;5098808;28;20066;-78